Urb Castillos del Mar, Puerto Rico
Current Conditions -  °F | °C
As of 1:57 PM on Friday 31 Oct 2014 (Local Time) from TJNR Reporting Station
Moderate Rain Moderate Rain  
Wind Chill: 78°   Ceiling: 3300
Heat Index: 81°   Visibility: 2.5mi
Dew Point: 75°   Wind: 8mph
Humidity: 90%   Direction: 240°WSW
Pressure: 29.9"   Gusts: NA
Location:  18.2667°N, 65.6476°W
Report Text: TJNR 311757Z AUTO 24007KT 2 1/2SM RA BR SCT021 BKN033 OVC060 26/24 A2990 RMK AO2 P0002 T02560239 $
Loading
Personal Weather Stations






























Interactive Weather Map
Tropical Storm Tracking
New forecast layout! Learn more

10-Day Weather Forecast

Advertisements
Track Severe Weather on mobile